PWSweather.com
Personal Weather Stations
Station Observations
KWABLAIN13
Ptl Weather, Blaine, WA

Ptl WeatherBlaine, WA

Lat: 48.997393, Lon: -122.748614

Elevation: 57

Station Type: Davis Advantage Pro 2

http://www.ptlnet.net

Latest ConditionsUpdated 6:25:00 AM PDT Monday, Jun 25, 2018
Currently Today's Max Today's Min Today's Average
Temperature 54.8°F12.7°C 58.8°F14.9°C 54.0°F12.2°C 56.5°F13.6°C
Dew Point 53.1°F11.7°C 57.2°F14.0°C 52.6°F11.4°C 55.1°F12.8°C
Winds Calm Calm 10.0 mph -16.1 kmh - - 3.8 mph 6.1 kmh
Wind Gusts 8.0 mph12.9 kmh 14.0 mph22.5 kmh - -
Humidity 94% 96% 94% 95%
Pressure 29.91 in1012.9 mb 29.91 in1012.9 mb 29.82 in1009.8 mb -
Hour Temp Dew Point Humidity Winds Wind Gusts Pressure Precip Precip Rate Daily Precip Total
06:25 AM 54.8°F12.7°C 53.1°F11.7°C 94% Calm Calm 8.0 mph12.9 kmh 29.91 in1012.9 mb 0.00 in0.0 mm 0.00 in0.0 mm 0.14 in3.6 mm
06:10 AM 54.5°F12.5°C 53.1°F11.7°C 95% 5.0 mph SE8.0 kmh SE 5.0 mph8.0 kmh 29.90 in1012.5 mb 0.00 in0.0 mm 0.00 in0.0 mm 0.14 in3.6 mm
06:05 AM 54.4°F12.4°C 53.0°F11.7°C 95% 1.0 mph SW1.6 kmh SW 7.0 mph11.3 kmh 29.90 in1012.5 mb 0.00 in0.0 mm 0.00 in0.0 mm 0.14 in3.6 mm
05:50 AM 54.1°F12.3°C 53.0°F11.7°C 96% Calm Calm 10.0 mph16.1 kmh 29.90 in1012.5 mb 0.00 in0.0 mm 0.00 in0.0 mm 0.14 in3.6 mm
05:45 AM 54.0°F12.2°C 52.6°F11.4°C 95% 4.0 mph SSE6.4 kmh SSE 10.0 mph16.1 kmh 29.89 in1012.2 mb 0.00 in0.0 mm 0.00 in0.0 mm 0.14 in3.6 mm
05:30 AM 54.2°F12.3°C 52.8°F11.6°C 95% 3.0 mph SSE4.8 kmh SSE 8.0 mph12.9 kmh 29.89 in1012.2 mb 0.00 in0.0 mm 0.00 in0.0 mm 0.14 in3.6 mm
05:25 AM 54.2°F12.3°C 52.8°F11.6°C 95% 5.0 mph SSE8.0 kmh SSE 7.0 mph11.3 kmh 29.89 in1012.2 mb 0.00 in0.0 mm 0.00 in0.0 mm 0.14 in3.6 mm
05:10 AM 54.1°F12.3°C 52.7°F11.5°C 95% 2.0 mph S3.2 kmh S 2.0 mph3.2 kmh 29.88 in1011.9 mb 0.00 in0.0 mm 0.00 in0.0 mm 0.14 in3.6 mm
05:05 AM 54.1°F12.3°C 52.7°F11.5°C 95% 5.0 mph SSW8.0 kmh SSW 8.0 mph12.9 kmh 29.88 in1011.9 mb 0.00 in0.0 mm 0.00 in0.0 mm 0.14 in3.6 mm
04:50 AM 54.2°F12.3°C 52.8°F11.6°C 95% 4.0 mph S6.4 kmh S 4.0 mph6.4 kmh 29.87 in1011.5 mb 0.00 in0.0 mm 0.00 in0.0 mm 0.14 in3.6 mm
04:45 AM 54.3°F12.4°C 52.9°F11.6°C 95% 2.0 mph SSE3.2 kmh SSE 6.0 mph9.7 kmh 29.87 in1011.5 mb 0.00 in0.0 mm 0.00 in0.0 mm 0.14 in3.6 mm
04:30 AM 54.6°F12.6°C 53.2°F11.8°C 95% 6.0 mph S9.7 kmh S 9.0 mph14.5 kmh 29.86 in1011.2 mb 0.00 in0.0 mm 0.00 in0.0 mm 0.14 in3.6 mm
04:25 AM 54.7°F12.6°C 53.3°F11.8°C 95% 5.0 mph S8.0 kmh S 6.0 mph9.7 kmh 29.87 in1011.5 mb 0.00 in0.0 mm 0.00 in0.0 mm 0.14 in3.6 mm
04:10 AM 54.9°F12.7°C 53.2°F11.8°C 94% 1.0 mph SSW1.6 kmh SSW 9.0 mph14.5 kmh 29.86 in1011.2 mb 0.00 in0.0 mm 0.00 in0.0 mm 0.14 in3.6 mm
04:05 AM 55.1°F12.8°C 53.4°F11.9°C 94% 5.0 mph SSW8.0 kmh SSW 9.0 mph14.5 kmh 29.86 in1011.2 mb 0.00 in0.0 mm 0.00 in0.0 mm 0.14 in3.6 mm
03:50 AM 56.1°F13.4°C 54.7°F12.6°C 95% 5.0 mph SSW8.0 kmh SSW 11.0 mph17.7 kmh 29.85 in1010.8 mb 0.00 in0.0 mm 0.00 in0.0 mm 0.14 in3.6 mm
03:45 AM 56.3°F13.5°C 54.9°F12.7°C 95% 5.0 mph SE8.0 kmh SE 9.0 mph14.5 kmh 29.85 in1010.8 mb 0.00 in0.0 mm 0.00 in0.0 mm 0.14 in3.6 mm
03:29 AM 56.7°F13.7°C 55.3°F12.9°C 95% 4.0 mph S6.4 kmh S 10.0 mph16.1 kmh 29.86 in1011.2 mb 0.00 in0.0 mm 0.00 in0.0 mm 0.14 in3.6 mm
03:25 AM 56.9°F13.8°C 55.5°F13.1°C 95% 4.0 mph SSW6.4 kmh SSW 8.0 mph12.9 kmh 29.86 in1011.2 mb 0.00 in0.0 mm 0.00 in0.0 mm 0.14 in3.6 mm
03:10 AM 57.3°F14.1°C 56.2°F13.4°C 96% 2.0 mph SSE3.2 kmh SSE 7.0 mph11.3 kmh 29.87 in1011.5 mb 0.00 in0.0 mm 0.00 in0.0 mm 0.14 in3.6 mm
03:05 AM 57.5°F14.2°C 56.4°F13.6°C 96% 7.0 mph SSW11.3 kmh SSW 7.0 mph11.3 kmh 29.87 in1011.5 mb 0.00 in0.0 mm 0.00 in0.0 mm 0.14 in3.6 mm
02:50 AM 57.4°F14.1°C 56.3°F13.5°C 96% 3.0 mph SE4.8 kmh SE 3.0 mph4.8 kmh 29.87 in1011.5 mb 0.00 in0.0 mm 0.00 in0.0 mm 0.14 in3.6 mm
02:45 AM 57.4°F14.1°C 56.3°F13.5°C 96% 1.0 mph SSE1.6 kmh SSE 6.0 mph9.7 kmh 29.87 in1011.5 mb 0.01 in0.3 mm 0.00 in0.0 mm 0.14 in3.6 mm
02:30 AM 57.4°F14.1°C 56.3°F13.5°C 96% 3.0 mph SW4.8 kmh SW 10.0 mph16.1 kmh 29.88 in1011.9 mb 0.01 in0.3 mm 0.00 in0.0 mm 0.14 in3.6 mm
02:25 AM 57.5°F14.2°C 56.1°F13.4°C 95% 9.0 mph SW14.5 kmh SW 10.0 mph16.1 kmh 29.87 in1011.5 mb 0.01 in0.3 mm 0.00 in0.0 mm 0.14 in3.6 mm
02:09 AM 57.8°F14.3°C 56.4°F13.6°C 95% 6.0 mph SW9.7 kmh SW 13.0 mph20.9 kmh 29.87 in1011.5 mb 0.01 in0.3 mm 0.00 in0.0 mm 0.14 in3.6 mm
02:05 AM 58.0°F14.4°C 56.6°F13.7°C 95% 6.0 mph SSW9.7 kmh SSW 12.0 mph19.3 kmh 29.87 in1011.5 mb 0.01 in0.3 mm 0.00 in0.0 mm 0.14 in3.6 mm
01:49 AM 58.3°F14.6°C 57.2°F14.0°C 96% 2.0 mph SSE3.2 kmh SSE 6.0 mph9.7 kmh 29.87 in1011.5 mb 0.01 in0.3 mm 0.15 in3.8 mm 0.14 in3.6 mm
01:45 AM 58.2°F14.6°C 57.1°F13.9°C 96% 3.0 mph S4.8 kmh S 6.0 mph9.7 kmh 29.87 in1011.5 mb 0.00 in0.0 mm 0.00 in0.0 mm 0.13 in3.3 mm
01:29 AM 58.2°F14.6°C 57.1°F13.9°C 96% 1.0 mph SSE1.6 kmh SSE 7.0 mph11.3 kmh 29.86 in1011.2 mb 0.01 in0.3 mm 0.00 in0.0 mm 0.13 in3.3 mm
01:25 AM 58.2°F14.6°C 57.1°F13.9°C 96% 3.0 mph S4.8 kmh S 6.0 mph9.7 kmh 29.86 in1011.2 mb 0.01 in0.3 mm 0.00 in0.0 mm 0.13 in3.3 mm
01:10 AM 58.0°F14.4°C 56.9°F13.8°C 96% 7.0 mph S11.3 kmh S 7.0 mph11.3 kmh 29.86 in1011.2 mb 0.02 in0.5 mm 0.00 in0.0 mm 0.13 in3.3 mm
01:05 AM 58.0°F14.4°C 56.6°F13.7°C 95% 2.0 mph SSE3.2 kmh SSE 4.0 mph6.4 kmh 29.86 in1011.2 mb 0.03 in0.8 mm 0.00 in0.0 mm 0.13 in3.3 mm
12:50 AM 58.2°F14.6°C 56.8°F13.8°C 95% 4.0 mph SSE6.4 kmh SSE 7.0 mph11.3 kmh 29.83 in1010.2 mb 0.08 in2.0 mm 0.00 in0.0 mm 0.13 in3.3 mm
12:45 AM 58.2°F14.6°C 56.8°F13.8°C 95% 2.0 mph SSE3.2 kmh SSE 7.0 mph11.3 kmh 29.82 in1009.8 mb 0.08 in2.0 mm 0.00 in0.0 mm 0.13 in3.3 mm
12:30 AM 58.4°F14.7°C 57.0°F13.9°C 95% 6.0 mph ENE9.7 kmh ENE 14.0 mph22.5 kmh 29.83 in1010.2 mb 0.13 in3.3 mm 0.12 in3.0 mm 0.13 in3.3 mm
12:25 AM 58.5°F14.7°C 57.1°F13.9°C 95% 10.0 mph ENE16.1 kmh ENE 13.0 mph20.9 kmh 29.84 in1010.5 mb 0.12 in3.0 mm 0.00 in0.0 mm 0.12 in3.0 mm
12:10 AM 58.6°F14.8°C 56.9°F13.8°C 94% 3.0 mph E4.8 kmh E 3.0 mph4.8 kmh 29.82 in1009.8 mb 0.12 in3.0 mm 0.12 in3.0 mm 0.12 in3.0 mm
12:05 AM 58.8°F14.9°C 57.1°F13.9°C 94% 4.0 mph E6.4 kmh E 7.0 mph11.3 kmh 29.82 in1009.8 mb 0.11 in2.8 mm 1.32 in33.5 mm 0.11 in2.8 mm